Time;durP1;ratioP1;P1;durP2;ratioP2;P2;SDS_P1;SDS_P2;PMS_P1;PMS_P2;Temp;Humidity;BMP_temperature;BMP_pressure;BME280_temperature;BME280_humidity;BME280_pressure;Samples;Min_cycle;Max_cycle;Signal;HPM_P1;HPM_P2
2022/02/10 00:06:58;;;;;;;3.77;3.47;;;23.20;65.90;;;;;;5056943;28;20427;-81
2022/02/10 00:15:21;;;;;;;4.43;3.70;;;23.20;65.80;;;;;;5114536;28;20514;-81
2022/02/10 00:17:58;;;;;;;3.53;3.23;;;23.20;65.80;;;;;;5114141;28;20432;-81
2022/02/10 00:20:31;;;;;;;3.90;3.50;;;23.20;65.80;;;;;;5114572;28;20475;-81
2022/02/10 00:23:17;;;;;;;3.10;2.90;;;23.20;65.80;;;;;;5114631;28;20492;-81
2022/02/10 00:34:25;;;;;;;4.27;3.40;;;23.10;65.60;;;;;;5121480;28;20481;-81
2022/02/10 00:39:49;;;;;;;3.50;3.20;;;23.20;65.70;;;;;;5110492;28;20431;-81
2022/02/10 00:42:16;;;;;;;3.40;3.03;;;23.10;65.50;;;;;;5110993;28;20431;-81
2022/02/10 00:44:44;;;;;;;3.20;2.90;;;23.20;65.60;;;;;;5110882;28;20444;-81
2022/02/10 00:47:11;;;;;;;3.47;3.17;;;23.20;65.60;;;;;;5110807;28;20483;-81
2022/02/10 00:49:38;;;;;;;2.97;2.67;;;23.20;65.60;;;;;;5110566;28;20443;-81
2022/02/10 00:52:06;;;;;;;3.53;3.27;;;23.20;65.50;;;;;;5110614;28;20809;-81
2022/02/10 00:54:36;;;;;;;3.03;2.83;;;23.10;65.40;;;;;;5110682;28;20444;-81
2022/02/10 00:57:07;;;;;;;2.97;2.77;;;23.20;65.50;;;;;;5110567;28;20450;-81
2022/02/10 00:59:43;;;;;;;2.80;2.60;;;23.10;65.40;;;;;;5110760;28;20438;-81
2022/02/10 01:10:40;;;;;;;3.22;3.00;;;23.10;65.30;;;;;;5110555;28;20415;-81
2022/02/10 01:13:22;;;;;;;2.90;2.70;;;23.10;65.30;;;;;;5110403;28;20669;-81
2022/02/10 01:29:51;;;;;;;2.90;2.70;;;23.10;65.20;;;;;;5092164;28;20437;-81
2022/02/10 01:32:18;;;;;;;2.80;2.60;;;23.10;65.20;;;;;;5110026;28;20447;-81
2022/02/10 01:34:50;;;;;;;2.40;2.20;;;23.10;65.20;;;;;;5110226;28;20459;-81
2022/02/10 01:37:17;;;;;;;3.30;3.00;;;23.10;65.10;;;;;;5109884;28;20477;-81
2022/02/10 01:39:49;;;;;;;3.07;2.87;;;23.10;65.20;;;;;;5098786;28;20432;-82
2022/02/10 02:03:18;;;;;;;2.57;2.37;;;23.10;65.00;;;;;;5096036;28;20200;-82
2022/02/10 02:04:13;;;;;;;2.77;2.57;;;23.00;64.80;;;;;;5095761;28;20439;-81
2022/02/10 02:06:45;;;;;;;2.63;2.43;;;23.10;64.90;;;;;;5095721;28;20436;-81
2022/02/10 02:09:15;;;;;;;2.33;2.13;;;23.10;65.10;;;;;;5095825;28;20444;-81
2022/02/10 02:11:43;;;;;;;2.37;2.17;;;23.00;64.80;;;;;;5095795;28;20498;-81
2022/02/10 02:14:12;;;;;;;2.73;2.53;;;23.00;64.80;;;;;;5095548;28;20447;-81
2022/02/10 02:16:45;;;;;;;2.43;2.23;;;23.00;64.70;;;;;;5095578;28;20436;-81
2022/02/10 02:19:12;;;;;;;2.33;2.13;;;23.10;64.90;;;;;;5095527;28;20505;-81
2022/02/10 02:21:39;;;;;;;3.10;2.03;;;23.00;64.70;;;;;;5095594;28;20443;-81
2022/02/10 02:24:08;;;;;;;2.67;2.40;;;23.00;64.70;;;;;;5095638;28;20447;-81
2022/02/10 02:26:35;;;;;;;2.77;2.37;;;23.00;64.70;;;;;;5095467;28;20436;-81
2022/02/10 02:29:06;;;;;;;2.30;2.10;;;23.00;64.70;;;;;;5095238;28;20488;-81
2022/02/10 02:31:38;;;;;;;2.30;2.10;;;23.00;64.70;;;;;;5095438;28;20538;-82
2022/02/10 02:37:21;;;;;;;2.33;2.00;;;23.00;64.70;;;;;;5038012;28;20420;-81
2022/02/10 02:40:23;;;;;;;4.20;1.80;;;23.10;65.60;;;;;;5095173;28;20501;-86
2022/02/10 03:04:58;;;;;;;2.37;2.17;;;22.90;64.50;;;;;;5094701;28;20528;-81
2022/02/10 03:07:35;;;;;;;2.27;2.07;;;22.90;64.50;;;;;;5094664;28;20519;-81
2022/02/10 03:12:59;;;;;;;2.50;2.17;;;22.90;64.50;;;;;;5032325;28;20922;-81
2022/02/10 03:15:31;;;;;;;2.10;1.90;;;22.90;64.50;;;;;;5079709;28;20440;-81
2022/02/10 03:18:14;;;;;;;1.93;1.83;;;22.90;64.40;;;;;;5094193;28;20807;-81
2022/02/10 03:20:56;;;;;;;2.37;2.17;;;22.90;64.40;;;;;;5094486;28;20435;-81
2022/02/10 04:02:38;;;;;;;1.70;1.60;;;22.80;64.20;;;;;;5093434;28;20828;-82
2022/02/10 04:05:26;;;;;;;1.70;1.60;;;22.80;64.10;;;;;;5093419;28;20452;-81
2022/02/10 04:07:59;;;;;;;1.77;1.67;;;22.80;64.10;;;;;;5093488;28;21064;-82
2022/02/10 04:13:36;;;;;;;2.00;1.80;;;22.80;64.00;;;;;;5056787;28;20459;-82
2022/02/10 04:16:11;;;;;;;1.63;1.53;;;22.80;63.90;;;;;;5093677;28;20994;-87
2022/02/10 04:21:43;;;;;;;2.47;2.27;;;22.80;63.90;;;;;;5093487;28;20419;-82
2022/02/10 04:24:30;;;;;;;1.90;1.80;;;22.80;63.90;;;;;;5093576;28;20602;-81
2022/02/10 04:27:03;;;;;;;2.23;1.97;;;22.90;64.00;;;;;;5093517;28;20440;-82
2022/02/10 04:30:06;;;;;;;2.30;2.10;;;22.80;63.80;;;;;;5093311;28;20487;-81
2022/02/10 04:37:24;;;;;;;2.03;1.93;;;22.80;63.90;;;;;;5093390;28;20514;-81
2022/02/10 04:38:45;;;;;;;1.93;1.83;;;22.80;63.90;;;;;;5093324;28;20642;-81
2022/02/10 04:57:54;;;;;;;2.13;1.93;;;22.70;63.70;;;;;;5093336;28;20431;-82
2022/02/10 05:00:39;;;;;;;1.90;1.80;;;22.70;63.70;;;;;;5093126;28;20431;-81
2022/02/10 05:03:33;;;;;;;2.73;2.53;;;22.70;63.60;;;;;;5092854;28;20432;-81
2022/02/10 05:06:52;;;;;;;1.80;1.70;;;22.70;63.70;;;;;;5093051;28;20801;-81
2022/02/10 05:13:03;;;;;;;2.00;1.90;;;22.70;63.60;;;;;;5093064;28;20427;-82
2022/02/10 05:15:38;;;;;;;2.00;1.90;;;22.70;63.60;;;;;;5095580;28;20432;-84
2022/02/10 05:21:06;;;;;;;2.10;1.93;;;22.70;63.60;;;;;;5096884;28;20423;-85
2022/02/10 05:23:55;;;;;;;1.73;1.63;;;22.70;63.60;;;;;;5096917;28;20447;-85
2022/02/10 05:32:16;;;;;;;2.83;2.23;;;22.70;63.50;;;;;;5096656;28;20767;-86
2022/02/10 05:34:48;;;;;;;1.97;1.87;;;22.70;63.60;;;;;;5096530;28;20984;-86
2022/02/10 05:37:18;;;;;;;2.10;2.00;;;22.70;63.60;;;;;;5096821;28;20431;-88
2022/02/10 05:39:49;;;;;;;2.07;1.93;;;22.70;63.50;;;;;;5096438;28;20810;-88
2022/02/10 05:42:51;;;;;;;2.10;1.90;;;22.70;63.50;;;;;;5096454;28;20852;-88
2022/02/10 05:45:25;;;;;;;1.90;1.80;;;22.70;63.50;;;;;;5096113;28;20431;-83
2022/02/10 05:51:25;;;;;;;2.60;2.10;;;22.70;63.40;;;;;;5095369;28;20915;-88
2022/02/10 05:53:57;;;;;;;2.27;2.03;;;22.70;63.40;;;;;;5096020;28;20500;-88
2022/02/10 05:56:36;;;;;;;2.15;1.95;;;22.60;63.30;;;;;;5096225;28;20448;-88
2022/02/10 06:51:35;;;;;;;2.30;1.93;;;22.60;64.70;;;;;;5077433;28;20424;-81
2022/02/10 06:54:13;;;;;;;2.28;1.90;;;22.60;63.90;;;;;;5094880;28;20438;-83
2022/02/10 06:57:10;;;;;;;2.67;1.80;;;22.60;63.90;;;;;;5094916;28;20288;-84
2022/02/10 07:05:49;;;;;;;1.53;1.43;;;22.70;63.60;;;;;;4993383;28;20429;-87
2022/02/10 07:08:45;;;;;;;2.80;2.07;;;22.60;63.60;;;;;;4993122;28;20571;-83
2022/02/10 07:11:26;;;;;;;2.07;1.80;;;22.60;63.70;;;;;;5078095;28;20439;-84
2022/02/10 07:14:14;;;;;;;2.00;1.88;;;22.60;63.70;;;;;;5095079;28;20440;-84
2022/02/10 07:59:01;;;;;;;2.70;1.73;;;22.70;64.20;;;;;;5093159;28;20513;-83
2022/02/10 08:54:48;;;;;;;2.07;1.87;;;22.50;63.10;;;;;;5108391;27;1295945;-81
2022/02/10 08:57:08;;;;;;;3.30;2.07;;;22.50;64.00;;;;;;5130511;28;20250;-81
2022/02/10 09:05:18;;;;;;;3.13;2.03;;;22.50;63.10;;;;;;5107669;28;20922;-86
2022/02/10 09:11:11;;;;;;;2.00;1.80;;;22.50;63.10;;;;;;5100074;28;20427;-80
2022/02/10 09:13:40;;;;;;;2.40;2.30;;;22.50;63.20;;;;;;5109855;28;20985;-80
2022/02/10 09:19:05;;;;;;;2.10;2.00;;;22.50;63.10;;;;;;5077103;28;21019;-80
2022/02/10 09:57:40;;;;;;;1.97;1.80;;;22.50;63.00;;;;;;5110559;28;20974;-86
2022/02/10 10:00:20;;;;;;;1.97;1.77;;;22.50;63.00;;;;;;5110134;28;20474;-80
2022/02/10 10:02:53;;;;;;;2.37;2.17;;;22.50;62.90;;;;;;5110069;28;20463;-87
2022/02/10 10:05:29;;;;;;;2.00;1.80;;;22.50;62.90;;;;;;5097174;28;20983;-81
2022/02/10 10:10:54;;;;;;;2.20;2.10;;;22.50;62.80;;;;;;5095580;28;20429;-86
2022/02/10 10:19:14;;;;;;;2.10;1.90;;;22.50;62.80;;;;;;5095145;28;20452;-86
2022/02/10 10:21:48;;;;;;;1.70;1.60;;;22.50;62.80;;;;;;5096207;28;20500;-86
2022/02/10 10:24:51;;;;;;;1.93;1.73;;;22.50;62.80;;;;;;5096025;28;20449;-81
2022/02/10 10:27:53;;;;;;;1.80;1.70;;;22.50;62.80;;;;;;5096003;28;20497;-83
2022/02/10 10:51:03;;;;;;;2.00;1.90;;;22.40;62.80;;;;;;5095348;28;20821;-86
2022/02/10 10:53:38;;;;;;;3.37;1.80;;;22.40;62.80;;;;;;5095000;28;20530;-87
2022/02/10 10:56:10;;;;;;;1.90;1.70;;;22.40;62.70;;;;;;5095603;28;20530;-80
2022/02/10 10:58:42;;;;;;;1.90;1.80;;;22.50;62.80;;;;;;5095472;28;20467;-86
2022/02/10 11:38:20;;;;;;;1.70;1.60;;;22.40;62.80;;;;;;5094770;28;20411;-86
2022/02/10 11:44:17;;;;;;;1.80;1.70;;;22.40;62.80;;;;;;5094723;28;20509;-87
2022/02/10 12:44:22;;;;;;;1.93;1.83;;;22.40;62.70;;;;;;5093535;28;20778;-85
2022/02/10 13:48:29;;;;;;;1.53;1.43;;;22.40;62.70;;;;;;5096753;28;20419;-81
2022/02/10 14:13:21;;;;;;;1.30;1.17;;;22.50;62.80;;;;;;5096285;28;21026;-86
2022/02/10 14:16:15;;;;;;;1.53;1.43;;;22.50;62.80;;;;;;5096296;28;20444;-86
2022/02/10 14:18:50;;;;;;;1.43;1.20;;;22.50;62.70;;;;;;5096216;28;20592;-86
2022/02/10 14:21:20;;;;;;;1.60;1.50;;;22.50;62.80;;;;;;5096279;28;20470;-81
2022/02/10 14:29:07;;;;;;;1.50;1.40;;;22.50;62.80;;;;;;5096034;28;20427;-86
2022/02/10 14:31:34;;;;;;;1.87;1.40;;;22.50;62.70;;;;;;5095889;28;20444;-80
2022/02/10 14:34:01;;;;;;;1.30;1.20;;;22.50;62.70;;;;;;5095737;28;20570;-80
2022/02/10 14:36:36;;;;;;;3.93;1.50;;;22.50;62.70;;;;;;5095930;28;20475;-81
2022/02/10 14:39:38;;;;;;;1.40;1.30;;;22.50;62.70;;;;;;5095776;28;20431;-86
2022/02/10 15:13:03;;;;;;;1.37;1.23;;;22.50;62.80;;;;;;5095400;28;20419;-80
2022/02/10 16:10:47;;;;;;;1.30;1.20;;;22.30;62.50;;;;;;5111212;27;1218328;-80
2022/02/10 16:10:57;;;;;;;1.30;1.20;;;22.30;62.50;;;;;;5111087;28;20466;-80
2022/02/10 16:18:51;;;;;;;1.20;1.10;;;22.30;62.40;;;;;;5110948;28;21032;-81
2022/02/10 16:21:29;;;;;;;1.37;1.27;;;22.30;62.40;;;;;;5110909;28;20482;-86
2022/02/10 16:24:01;;;;;;;1.80;1.20;;;22.30;62.40;;;;;;5111190;28;20456;-80
2022/02/10 16:26:39;;;;;;;1.50;1.30;;;22.30;62.40;;;;;;5111175;28;20450;-80
2022/02/10 16:29:10;;;;;;;1.80;1.40;;;22.30;62.40;;;;;;5110806;28;20948;-80
2022/02/10 16:31:37;;;;;;;1.30;1.20;;;22.30;62.30;;;;;;5110759;28;20438;-80
2022/02/10 16:34:06;;;;;;;1.73;1.20;;;22.30;62.40;;;;;;5110544;28;20451;-80
2022/02/10 16:36:33;;;;;;;2.47;1.40;;;22.30;62.40;;;;;;5110761;28;20486;-82
2022/02/10 16:39:00;;;;;;;1.50;1.10;;;22.30;62.40;;;;;;5110828;28;20539;-86
2022/02/10 16:41:28;;;;;;;1.30;1.20;;;22.30;62.40;;;;;;5110386;28;20443;-84
2022/02/10 16:43:54;;;;;;;1.50;1.40;;;22.30;62.30;;;;;;5110552;28;20447;-80
2022/02/10 16:46:23;;;;;;;1.40;1.20;;;22.40;62.40;;;;;;5110276;28;20444;-86
2022/02/10 16:48:50;;;;;;;1.30;1.13;;;22.30;62.30;;;;;;5110280;28;20435;-80
2022/02/10 16:51:19;;;;;;;1.10;1.00;;;22.20;62.30;;;;;;5110286;28;20811;-86
2022/02/10 16:53:51;;;;;;;3.00;1.10;;;22.20;62.30;;;;;;5110317;28;20441;-80
2022/02/10 16:56:22;;;;;;;1.50;1.40;;;22.20;62.20;;;;;;5110123;28;20577;-79
2022/02/10 16:59:01;;;;;;;1.13;1.03;;;22.20;62.20;;;;;;5110611;28;20434;-80
2022/02/10 17:04:43;;;;;;;1.40;1.20;;;22.20;62.20;;;;;;5108926;28;20443;-85
2022/02/10 17:16:26;;;;;;;1.53;1.37;;;22.20;62.30;;;;;;5096400;28;20474;-85
2022/02/10 17:19:04;;;;;;;1.10;1.00;;;22.20;62.30;;;;;;5095991;28;20906;-85
2022/02/10 17:27:05;;;;;;;1.40;1.30;;;22.10;62.20;;;;;;5096113;28;20562;-82
2022/02/10 17:29:43;;;;;;;1.20;1.10;;;22.10;62.20;;;;;;5095943;28;20501;-82
2022/02/10 17:32:17;;;;;;;1.30;1.10;;;22.10;62.20;;;;;;5095885;28;20444;-88
2022/02/10 17:41:26;;;;;;;1.30;1.20;;;22.10;62.20;;;;;;5096193;28;20439;-87
2022/02/10 17:46:04;;;;;;;1.77;1.30;;;22.10;62.20;;;;;;5095781;28;20416;-81
2022/02/10 17:51:42;;;;;;;1.47;1.27;;;22.10;62.20;;;;;;5095767;28;20446;-80
2022/02/10 17:54:11;;;;;;;1.33;1.23;;;22.10;62.20;;;;;;5095511;28;20435;-85
2022/02/10 17:56:38;;;;;;;1.50;1.40;;;22.10;62.20;;;;;;5094852;28;20545;-79
2022/02/10 17:59:06;;;;;;;1.50;1.40;;;22.10;62.20;;;;;;5095351;28;20447;-81
2022/02/10 18:01:33;;;;;;;1.30;1.20;;;22.10;62.20;;;;;;5095179;28;20436;-80
2022/02/10 18:04:00;;;;;;;1.80;1.37;;;22.10;62.20;;;;;;5095179;28;20492;-86
2022/02/10 18:06:29;;;;;;;1.30;1.20;;;22.10;63.10;;;;;;5095355;28;20439;-81
2022/02/10 18:14:36;;;;;;;1.30;1.20;;;22.10;62.20;;;;;;5037974;28;20940;-80
2022/02/10 18:17:10;;;;;;;1.60;1.50;;;22.10;62.20;;;;;;5095005;28;20476;-80
2022/02/10 18:19:42;;;;;;;1.13;1.03;;;22.10;62.20;;;;;;5094007;28;20802;-80
2022/02/10 18:25:07;;;;;;;1.53;1.43;;;22.10;62.20;;;;;;5094574;28;20953;-90
2022/02/10 18:27:40;;;;;;;1.20;1.10;;;22.00;62.10;;;;;;5094953;28;20539;-89
2022/02/10 18:30:21;;;;;;;4.57;2.20;;;22.00;62.30;;;;;;5094940;28;20443;-85
2022/02/10 19:06:26;;;;;;;23.83;20.93;;;22.10;62.60;;;;;;5093739;28;20511;-81
2022/02/10 19:09:00;;;;;;;20.20;18.10;;;22.20;63.00;;;;;;5091754;28;20432;-83
2022/02/10 19:11:28;;;;;;;18.20;14.70;;;22.20;63.00;;;;;;5093267;28;20946;-83
2022/02/10 19:13:56;;;;;;;15.03;13.60;;;22.20;62.80;;;;;;5093656;28;20538;-86
2022/02/10 19:16:25;;;;;;;15.20;13.47;;;22.20;62.60;;;;;;5093656;28;20561;-83
2022/02/10 19:18:52;;;;;;;16.00;14.30;;;22.30;63.20;;;;;;5093747;28;20451;-83
2022/02/10 19:21:19;;;;;;;16.00;14.37;;;22.30;63.50;;;;;;5093888;28;20432;-83
2022/02/10 19:23:46;;;;;;;13.73;12.33;;;22.30;63.50;;;;;;5094069;28;20436;-83
2022/02/10 19:26:13;;;;;;;14.60;12.90;;;22.30;63.40;;;;;;5093563;28;20515;-83
2022/02/10 19:28:41;;;;;;;13.27;11.83;;;22.30;63.40;;;;;;5093602;28;20487;-83
2022/02/10 19:31:09;;;;;;;13.00;11.67;;;22.30;63.50;;;;;;5093388;28;20443;-82
2022/02/10 19:33:36;;;;;;;15.93;11.63;;;22.30;63.40;;;;;;5093634;28;20871;-82
2022/02/10 19:36:04;;;;;;;13.80;12.40;;;22.40;63.50;;;;;;5093614;28;21049;-82
2022/02/10 19:38:31;;;;;;;10.80;9.70;;;22.40;63.50;;;;;;5093515;28;20444;-83
2022/02/10 19:40:58;;;;;;;11.90;10.70;;;22.50;64.50;;;;;;5093551;28;20444;-82
2022/02/10 19:43:26;;;;;;;20.40;16.80;;;22.50;63.60;;;;;;5093493;28;20431;-87
2022/02/10 19:45:54;;;;;;;13.60;12.23;;;22.40;63.50;;;;;;5093430;28;20454;-82
2022/02/10 19:48:22;;;;;;;12.87;11.43;;;22.40;63.60;;;;;;5093252;28;20436;-82
2022/02/10 19:50:51;;;;;;;14.23;12.73;;;22.50;63.80;;;;;;5093375;28;20436;-83
2022/02/10 19:53:18;;;;;;;12.63;11.37;;;22.50;63.80;;;;;;5093423;28;20431;-81
2022/02/10 19:55:49;;;;;;;11.60;10.50;;;22.50;63.70;;;;;;5093009;28;20582;-80
2022/02/10 19:58:20;;;;;;;11.90;10.27;;;22.60;63.70;;;;;;5093537;28;20440;-80
2022/02/10 20:00:48;;;;;;;11.80;10.50;;;22.60;63.80;;;;;;5093324;28;20451;-83
2022/02/10 20:03:18;;;;;;;10.47;9.40;;;22.60;63.70;;;;;;5093201;28;20525;-80
2022/02/10 20:05:46;;;;;;;10.73;9.70;;;22.60;63.80;;;;;;5093225;28;20455;-85
2022/02/10 20:08:14;;;;;;;11.13;9.23;;;22.60;63.80;;;;;;5093216;28;20454;-80
2022/02/10 20:10:42;;;;;;;8.57;7.77;;;22.70;63.80;;;;;;5093239;28;20436;-80
2022/02/10 20:13:13;;;;;;;9.70;8.73;;;22.70;63.80;;;;;;5093117;28;20531;-80
2022/02/10 20:15:40;;;;;;;11.13;10.03;;;22.70;63.80;;;;;;5093130;28;20471;-80
2022/02/10 20:18:06;;;;;;;10.10;8.10;;;22.70;63.80;;;;;;5093133;28;20949;-81
2022/02/10 20:20:34;;;;;;;8.30;7.57;;;22.70;63.70;;;;;;5093035;28;20442;-80
2022/02/10 20:23:01;;;;;;;8.47;7.60;;;22.70;63.80;;;;;;5093142;28;20436;-80
2022/02/10 20:25:28;;;;;;;9.40;7.70;;;22.70;63.80;;;;;;5093094;28;20432;-80
2022/02/10 20:27:55;;;;;;;10.30;6.80;;;22.70;63.90;;;;;;5092944;28;20454;-81
2022/02/10 20:30:21;;;;;;;8.37;7.67;;;22.70;63.90;;;;;;5093117;28;20435;-80
2022/02/10 20:32:48;;;;;;;6.90;6.30;;;22.80;64.10;;;;;;5093206;28;20466;-82
2022/02/10 20:35:17;;;;;;;7.60;6.90;;;22.80;64.10;;;;;;5093189;28;20772;-80
2022/02/10 20:37:45;;;;;;;8.20;7.40;;;22.80;64.00;;;;;;5093014;28;20490;-81
2022/02/10 20:40:13;;;;;;;6.73;6.10;;;22.80;64.10;;;;;;5092927;28;20440;-81
2022/02/10 20:42:40;;;;;;;6.50;5.90;;;22.80;64.30;;;;;;5095172;28;20440;-85
2022/02/10 20:45:08;;;;;;;7.17;6.47;;;22.80;64.30;;;;;;5097090;28;20443;-80
2022/02/10 20:47:35;;;;;;;7.97;6.73;;;22.90;64.40;;;;;;5096682;28;20427;-80
2022/02/10 20:50:03;;;;;;;6.87;6.07;;;22.90;64.40;;;;;;5096765;28;20439;-81
2022/02/10 20:52:31;;;;;;;7.00;6.30;;;22.90;64.40;;;;;;5096828;28;20463;-87
2022/02/10 20:55:00;;;;;;;6.40;5.80;;;22.90;64.50;;;;;;5096554;28;20527;-80
2022/02/10 20:57:27;;;;;;;6.30;5.80;;;22.90;64.60;;;;;;5096654;28;20479;-80
2022/02/10 20:59:55;;;;;;;5.90;5.40;;;23.00;64.70;;;;;;5096650;28;20436;-82
2022/02/10 21:02:30;;;;;;;5.77;5.03;;;23.00;64.60;;;;;;5096364;28;20463;-80
2022/02/10 21:05:00;;;;;;;6.60;5.57;;;23.00;64.80;;;;;;5096298;28;20436;-80
2022/02/10 21:07:32;;;;;;;5.87;5.30;;;23.00;64.70;;;;;;5096375;28;20522;-80
2022/02/10 21:10:03;;;;;;;7.57;4.70;;;23.00;64.60;;;;;;5096296;28;20435;-80
2022/02/10 21:12:34;;;;;;;5.63;5.13;;;23.00;64.60;;;;;;5096360;28;20443;-80
2022/02/10 21:15:03;;;;;;;5.90;4.93;;;23.00;64.50;;;;;;5096294;28;20490;-81
2022/02/10 21:17:30;;;;;;;4.67;4.37;;;23.00;64.60;;;;;;5096068;28;20501;-81
2022/02/10 21:20:01;;;;;;;4.90;4.50;;;23.00;64.60;;;;;;5096020;28;20436;-84
2022/02/10 21:22:31;;;;;;;6.70;5.87;;;23.00;64.60;;;;;;5096132;28;20440;-81
2022/02/10 21:25:05;;;;;;;3.90;3.60;;;23.00;64.60;;;;;;5096014;28;20446;-81
2022/02/10 21:27:40;;;;;;;4.93;4.53;;;23.00;64.70;;;;;;5096053;28;20471;-80
2022/02/10 21:30:08;;;;;;;4.03;3.73;;;23.00;64.70;;;;;;5095970;28;20951;-80
2022/02/10 21:32:42;;;;;;;4.60;3.83;;;23.00;64.70;;;;;;5095697;28;20464;-85
2022/02/10 21:35:21;;;;;;;3.57;3.27;;;23.00;64.70;;;;;;5095815;28;20489;-85
2022/02/10 21:37:53;;;;;;;4.57;3.23;;;23.00;64.60;;;;;;5095910;28;20479;-83
2022/02/10 21:40:31;;;;;;;4.40;4.00;;;23.00;64.60;;;;;;5095815;28;20451;-85
2022/02/10 22:10:55;;;;;;;3.47;3.27;;;22.90;64.50;;;;;;5095069;28;20425;-82
2022/02/10 22:19:05;;;;;;;3.30;3.00;;;22.90;64.40;;;;;;5058209;28;20420;-80
2022/02/10 22:21:34;;;;;;;3.20;2.90;;;22.90;65.20;;;;;;5094980;28;20922;-80
2022/02/10 22:24:06;;;;;;;2.80;2.60;;;22.90;64.20;;;;;;5094963;28;20483;-87
2022/02/10 22:26:33;;;;;;;2.90;2.70;;;22.90;64.20;;;;;;5094918;28;20448;-80
2022/02/10 22:29:04;;;;;;;3.27;2.50;;;22.90;64.10;;;;;;5094795;28;20475;-80
2022/02/10 22:31:45;;;;;;;3.43;2.60;;;22.90;64.10;;;;;;5095021;28;20950;-80
2022/02/10 22:36:55;;;;;;;3.37;2.53;;;22.90;64.00;;;;;;5091452;28;20512;-86
2022/02/10 22:39:21;;;;;;;3.43;2.70;;;22.90;63.90;;;;;;5094956;28;20490;-85
2022/02/10 22:41:48;;;;;;;3.10;2.77;;;22.80;63.70;;;;;;5094618;28;20439;-86
2022/02/10 22:44:16;;;;;;;2.93;2.63;;;22.80;63.70;;;;;;5094552;28;20880;-80
2022/02/10 22:46:45;;;;;;;2.60;2.40;;;22.80;63.60;;;;;;5094565;28;20531;-86
2022/02/10 22:49:12;;;;;;;2.60;2.40;;;22.80;63.60;;;;;;5094369;28;20448;-81
2022/02/10 22:51:39;;;;;;;2.77;2.53;;;22.80;63.60;;;;;;5094593;28;20443;-86
2022/02/10 22:54:07;;;;;;;2.63;2.40;;;22.80;63.60;;;;;;5094599;28;20440;-80
2022/02/10 22:56:35;;;;;;;2.53;2.33;;;22.80;63.50;;;;;;5093969;28;20500;-80
2022/02/10 22:59:04;;;;;;;2.77;2.57;;;22.80;63.50;;;;;;5094384;28;20446;-86
2022/02/10 23:01:31;;;;;;;2.13;1.93;;;22.80;63.40;;;;;;5094157;28;20440;-80
2022/02/10 23:04:00;;;;;;;2.10;2.00;;;22.80;63.40;;;;;;5094155;28;20463;-86
2022/02/10 23:06:27;;;;;;;1.90;1.80;;;22.80;63.40;;;;;;5093855;28;20440;-80
2022/02/10 23:08:55;;;;;;;2.27;2.07;;;22.80;63.40;;;;;;5094163;28;20493;-85
2022/02/10 23:11:27;;;;;;;2.20;2.00;;;22.80;63.30;;;;;;5094381;28;20443;-80
2022/02/10 23:13:55;;;;;;;2.20;2.00;;;22.80;63.30;;;;;;5094222;28;20436;-85
2022/02/10 23:16:22;;;;;;;1.80;1.70;;;22.80;63.30;;;;;;5094171;28;20454;-80
2022/02/10 23:18:48;;;;;;;1.63;1.53;;;22.70;63.20;;;;;;5093803;28;20443;-80
2022/02/10 23:21:17;;;;;;;2.10;1.90;;;22.70;63.20;;;;;;5093702;28;20938;-80
2022/02/10 23:23:46;;;;;;;2.33;2.13;;;22.70;63.10;;;;;;5093954;28;20440;-86
2022/02/10 23:26:17;;;;;;;2.20;2.00;;;22.70;63.20;;;;;;5093975;28;20926;-87
2022/02/10 23:28:45;;;;;;;2.67;2.00;;;22.70;63.10;;;;;;5093907;28;20440;-86
2022/02/10 23:31:15;;;;;;;2.50;1.93;;;22.70;63.10;;;;;;5093804;28;21277;-86
2022/02/10 23:33:47;;;;;;;2.07;1.87;;;22.70;63.10;;;;;;5094087;28;20551;-86
2022/02/10 23:36:41;;;;;;;2.33;2.13;;;22.70;63.10;;;;;;5093575;28;20455;-86
2022/02/10 23:39:13;;;;;;;1.80;1.70;;;22.70;63.00;;;;;;5093605;28;20436;-80
2022/02/10 23:42:05;;;;;;;1.90;1.80;;;22.70;63.00;;;;;;5093545;28;20501;-86
2022/02/10 23:44:35;;;;;;;2.10;2.00;;;22.70;63.00;;;;;;5093650;28;20442;-80
2022/02/10 23:47:03;;;;;;;3.30;1.77;;;22.60;62.90;;;;;;5093878;28;20501;-87
2022/02/10 23:49:33;;;;;;;1.70;1.60;;;22.60;62.80;;;;;;5093774;28;20524;-80
2022/02/10 23:52:04;;;;;;;1.60;1.50;;;22.60;62.80;;;;;;5093356;28;20972;-86
2022/02/10 23:54:34;;;;;;;2.70;1.83;;;22.60;62.80;;;;;;5093630;28;20436;-80
2022/02/10 23:57:05;;;;;;;2.20;1.93;;;22.60;62.80;;;;;;5093171;28;20805;-87
2022/02/10 23:59:45;;;;;;;2.27;1.90;;;22.60;62.70;;;;;;5093341;28;20444;-80
